Time;durP1;ratioP1;P1;durP2;ratioP2;P2;SDS_P1;SDS_P2;PMS_P1;PMS_P2;Temp;Humidity;BMP_temperature;BMP_pressure;BME280_temperature;BME280_humidity;BME280_pressure;Samples;Min_cycle;Max_cycle;Signal;HPM_P1;HPM_P2
2024/03/10 00:06:05;;;;;;;0.08;0.08;;;;;;;4.42;76.85;100137.16;15814562;28;20329;-52
2024/03/10 00:13:39;;;;;;;0.32;0.32;;;;;;;4.47;76.71;100132.94;15827987;28;20040;-46
2024/03/10 00:21:14;;;;;;;0.68;0.68;;;;;;;4.51;76.66;100128.91;15811154;28;20492;-48
2024/03/10 00:28:49;;;;;;;0.10;0.10;;;;;;;4.34;77.04;100132.78;15837979;28;20044;-51
2024/03/10 00:36:24;;;;;;;0.10;0.10;;;;;;;4.43;75.35;100137.00;15795308;28;20043;-54
2024/03/10 00:43:57;;;;;;;0.73;0.73;;;;;;;3.98;78.04;100138.84;15807583;28;20032;-53
2024/03/10 00:51:32;;;;;;;;;;;;;;;4.50;76.57;100129.94;15805183;28;20047;-51
2024/03/10 00:59:06;;;;;;;10.95;0.93;;;;;;;4.31;76.43;100128.66;15831121;28;19919;-49
2024/03/10 01:06:41;;;;;;;2.17;0.73;;;;;;;4.53;75.57;100120.78;15825723;28;20121;-50
2024/03/10 01:14:16;;;;;;;0.00;0.00;;;;;;;3.99;78.40;100115.75;15788775;28;20040;-52
2024/03/10 01:21:52;;;;;;;0.17;0.17;;;;;;;3.79;78.60;100100.38;15826039;28;20066;-51
2024/03/10 01:29:26;;;;;;;1.55;0.90;;;;;;;3.82;78.88;100086.75;15844843;28;20492;-49
2024/03/10 01:37:01;;;;;;;0.00;0.00;;;;;;;4.02;77.89;100087.00;15820999;28;20070;-49
2024/03/10 01:44:34;;;;;;;2.30;1.75;;;;;;;4.11;77.88;100086.94;15820450;28;20054;-49
2024/03/10 01:52:11;;;;;;;0.55;0.55;;;;;;;3.89;78.11;100073.56;15834435;28;20438;-51
2024/03/10 01:59:49;;;;;;;1.25;0.45;;;;;;;3.68;79.12;100058.34;15810886;28;20056;-50
2024/03/10 02:07:26;;;;;;;0.63;0.55;;;;;;;3.88;77.98;100055.16;15817300;28;20043;-47
2024/03/10 02:15:00;;;;;;;1.00;0.85;;;;;;;4.19;76.66;100069.03;15830127;28;20042;-53
2024/03/10 02:22:36;;;;;;;1.15;0.93;;;;;;;4.03;77.01;100059.44;15811330;28;20083;-49
2024/03/10 02:30:29;;;;;;;0.50;0.50;;;;;;;3.84;78.17;100060.00;15807507;28;20040;-46
2024/03/10 02:53:49;;;;;;;3.08;1.17;;;;;;;3.30;80.22;100049.59;15798098;28;20521;-46
2024/03/10 03:01:24;;;;;;;0.17;0.17;;;;;;;3.37;80.80;100055.84;15848114;28;20369;-50
2024/03/10 03:09:03;;;;;;;1.48;1.38;;;;;;;3.20;80.50;100051.69;15830146;28;20062;-48
2024/03/10 03:16:39;;;;;;;1.15;0.60;;;;;;;3.23;81.16;100056.66;15787640;28;20474;-48
2024/03/10 03:24:15;;;;;;;1.67;1.50;;;;;;;3.14;81.30;100047.94;15843689;28;20127;-53
2024/03/10 03:31:51;;;;;;;2.28;1.25;;;;;;;3.23;80.98;100052.16;15826127;28;20137;-47
2024/03/10 03:39:26;;;;;;;2.08;1.33;;;;;;;3.21;81.17;100038.25;15815237;28;20361;-49
2024/03/10 03:47:01;;;;;;;0.47;0.47;;;;;;;3.46;81.14;100030.88;15967861;22;20054;-50
2024/03/10 03:54:41;;;;;;;0.70;0.70;;;;;;;3.22;81.37;100033.78;15923759;27;20487;-51
2024/03/10 04:02:23;;;;;;;0.08;0.08;;;;;;;3.01;81.71;100034.44;15880928;27;20051;-52
2024/03/10 04:09:58;;;;;;;0.68;0.68;;;;;;;3.30;80.79;100026.56;15910476;27;20039;-47
2024/03/10 04:17:35;;;;;;;0.85;0.85;;;;;;;3.34;80.83;100032.31;15898450;27;20089;-49
2024/03/10 04:25:10;;;;;;;0.00;0.00;;;;;;;3.13;81.04;100034.84;15895085;27;20096;-49
2024/03/10 04:32:48;;;;;;;0.50;0.38;;;;;;;3.68;79.32;100033.63;15900251;27;20120;-53
2024/03/10 04:40:29;;;;;;;0.40;0.40;;;;;;;3.04;81.67;100032.28;15896887;27;20043;-50
2024/03/10 04:48:08;;;;;;;3.85;1.75;;;;;;;3.19;81.66;100034.97;15887993;27;20047;-51
2024/03/10 04:55:43;;;;;;;0.45;0.45;;;;;;;3.17;82.83;100020.22;15902012;27;20497;-48
2024/03/10 05:03:20;;;;;;;0.10;0.10;;;;;;;2.84;83.07;100009.88;15866361;27;20048;-50
2024/03/10 05:10:54;;;;;;;0.65;0.65;;;;;;;2.73;83.64;100020.91;15911883;27;20038;-49
2024/03/10 05:18:32;;;;;;;0.00;0.00;;;;;;;2.78;83.36;100015.91;15874384;27;20050;-48
2024/03/10 05:26:06;;;;;;;1.75;1.55;;;;;;;3.03;82.20;100022.69;15862856;28;20629;-49
2024/03/10 05:33:49;;;;;;;0.23;0.23;;;;;;;2.71;83.00;100009.69;15909761;28;20035;-53
2024/03/10 05:41:31;;;;;;;0.10;0.10;;;;;;;2.57;84.69;100021.88;15905512;27;20110;-51
2024/03/10 05:49:05;;;;;;;;;;;;;;;2.93;83.03;100013.31;15886925;28;20316;-49
2024/03/10 05:56:39;;;;;;;0.20;0.20;;;;;;;2.77;84.59;100011.63;15890172;27;19919;-49
2024/03/10 06:04:16;;;;;;;0.75;0.40;;;;;;;2.79;84.98;100006.94;15901800;27;20044;-50
2024/03/10 06:11:50;;;;;;;0.55;0.55;;;;;;;2.96;83.76;99999.69;15900611;27;20043;-51
2024/03/10 06:27:17;;;;;;;0.30;0.30;;;;;;;3.45;83.13;99997.41;15903713;27;20047;-48
2024/03/10 06:34:52;;;;;;;0.80;0.80;;;;;;;3.61;82.95;99995.59;15847948;27;20423;-49
2024/03/10 06:42:26;;;;;;;1.75;1.65;;;;;;;3.98;81.71;100005.25;15885245;27;20157;-49
2024/03/10 06:50:01;;;;;;;0.40;0.40;;;;;;;4.12;81.75;100000.94;15897871;27;20031;-49
2024/03/10 06:57:35;;;;;;;1.40;1.30;;;;;;;4.60;79.43;100002.06;15899820;27;20035;-51
2024/03/10 07:05:10;;;;;;;0.75;0.75;;;;;;;5.71;75.21;100004.97;15927216;27;20047;-55
2024/03/10 07:12:45;;;;;;;1.00;1.00;;;;;;;6.51;72.81;100001.59;15916548;27;20054;-49
2024/03/10 07:20:21;;;;;;;1.48;1.40;;;;;;;6.72;71.59;99989.97;15919745;27;20548;-49
2024/03/10 07:27:55;;;;;;;1.73;1.42;;;;;;;7.65;68.18;99996.06;15891169;27;20380;-51
2024/03/10 07:35:34;;;;;;;0.10;0.10;;;;;;;7.30;69.27;99978.66;15899015;27;20032;-50
2024/03/10 07:43:08;;;;;;;0.70;0.70;;;;;;;7.51;69.00;99975.75;15879682;27;20043;-52
2024/03/10 07:50:43;;;;;;;;;;;;;;;7.72;68.18;99989.88;15874068;27;20071;-49
2024/03/10 07:58:17;;;;;;;0.00;0.00;;;;;;;7.73;68.54;99992.31;15893989;27;19919;-49
2024/03/10 08:05:52;;;;;;;6.80;1.42;;;;;;;8.32;65.69;99980.56;15894273;27;20075;-52
2024/03/10 08:13:27;;;;;;;1.05;0.70;;;;;;;9.50;63.35;99973.72;15911670;27;20039;-49
2024/03/10 08:21:03;;;;;;;1.48;1.38;;;;;;;9.10;63.93;99974.91;15879697;27;20058;-49
2024/03/10 08:28:37;;;;;;;0.65;0.52;;;;;;;9.41;62.88;99983.91;15898939;27;20039;-50
2024/03/10 08:36:16;;;;;;;0.30;0.30;;;;;;;9.56;62.72;99970.97;15892187;27;20460;-52
2024/03/10 08:43:53;;;;;;;1.08;0.70;;;;;;;10.72;59.42;99980.66;15901789;27;20079;-49
2024/03/10 08:51:29;;;;;;;2.55;1.70;;;;;;;11.60;57.18;99980.81;15902327;27;20127;-57
2024/03/10 08:59:11;;;;;;;0.95;0.73;;;;;;;11.53;57.12;99966.72;15902595;27;20496;-48
2024/03/10 09:06:47;;;;;;;3.70;1.38;;;;;;;11.17;57.20;99966.69;15903313;27;20500;-52
2024/03/10 09:14:21;;;;;;;2.85;1.48;;;;;;;10.74;58.49;99964.31;15892895;27;20079;-53
2024/03/10 09:21:56;;;;;;;0.32;0.32;;;;;;;12.12;55.13;99965.53;15882802;27;20096;-49
2024/03/10 09:29:31;;;;;;;0.38;0.38;;;;;;;11.69;56.21;99977.53;15921139;28;20445;-55
2024/03/10 09:37:06;;;;;;;1.58;1.13;;;;;;;12.27;53.57;99969.59;15892450;28;20122;-49
2024/03/10 09:44:43;;;;;;;1.30;0.77;;;;;;;11.92;55.75;99970.50;15853373;22;20349;-51
2024/03/10 09:52:20;;;;;;;9.95;1.75;;;;;;;11.98;54.84;99974.94;15790726;28;20504;-49
2024/03/10 09:59:55;;;;;;;2.08;1.30;;;;;;;12.35;54.84;99964.63;15800260;28;20032;-50
2024/03/10 10:07:31;;;;;;;2.33;0.40;;;;;;;12.76;53.76;99966.16;15784147;28;20044;-49
2024/03/10 10:15:07;;;;;;;1.92;1.83;;;;;;;12.43;54.02;99949.97;15805321;28;20471;-50
2024/03/10 10:31:32;;;;;;;1.27;1.17;;;;;;;12.60;53.63;99920.41;15795237;28;20492;-49
2024/03/10 10:39:17;;;;;;;2.70;1.83;;;;;;;12.32;55.07;99903.22;15806704;28;20052;-49
2024/03/10 10:47:00;;;;;;;1.60;1.23;;;;;;;13.10;53.71;99920.38;15799197;28;20059;-50
2024/03/10 10:54:40;;;;;;;;;;;;;;;13.52;52.30;99903.72;15776913;28;20032;-50
2024/03/10 11:02:19;;;;;;;2.92;0.55;;;;;;;13.06;52.92;99896.88;15804504;28;19927;-48
2024/03/10 11:09:54;;;;;;;0.63;0.63;;;;;;;13.20;52.77;99885.50;15798761;28;20127;-49
2024/03/10 11:17:31;;;;;;;2.30;1.33;;;;;;;13.45;52.60;99889.63;15799708;28;20036;-50
2024/03/10 11:25:11;;;;;;;0.95;0.73;;;;;;;12.97;53.60;99873.06;15803197;28;20072;-50
2024/03/10 11:32:47;;;;;;;2.50;0.95;;;;;;;13.10;53.16;99858.41;15761176;28;20041;-50
2024/03/10 11:40:21;;;;;;;1.95;1.73;;;;;;;12.39;54.55;99849.25;15803214;28;20048;-50
2024/03/10 11:47:56;;;;;;;4.10;1.10;;;;;;;13.37;52.80;99850.44;15803212;28;20496;-51
2024/03/10 11:55:44;;;;;;;1.33;1.02;;;;;;;12.97;54.06;99837.22;15800655;28;20036;-50
2024/03/10 12:03:20;;;;;;;1.02;0.95;;;;;;;12.79;54.86;99813.25;15801169;28;20427;-49
2024/03/10 12:10:59;;;;;;;0.35;0.35;;;;;;;13.12;54.16;99799.69;15782753;28;20431;-50
2024/03/10 12:18:38;;;;;;;5.78;1.08;;;;;;;13.14;53.88;99786.78;15806687;28;20404;-50
2024/03/10 12:26:14;;;;;;;1.05;0.82;;;;;;;13.30;54.16;99778.94;15763960;28;20044;-51
2024/03/10 12:33:49;;;;;;;1.40;1.30;;;;;;;13.70;53.32;99771.28;15780945;28;20466;-48
2024/03/10 12:41:26;;;;;;;8.77;1.60;;;;;;;12.90;53.18;99767.34;15794946;28;20044;-49
2024/03/10 12:49:01;;;;;;;0.30;0.30;;;;;;;12.52;54.03;99744.75;15789433;28;20122;-50
2024/03/10 12:56:35;;;;;;;1.25;1.15;;;;;;;12.80;53.93;99742.19;15800281;28;20040;-50
2024/03/10 13:04:11;;;;;;;0.50;0.50;;;;;;;12.64;53.73;99747.38;15800571;28;20048;-49
2024/03/10 13:11:45;;;;;;;0.55;0.35;;;;;;;12.42;53.94;99743.81;15800172;28;20386;-50
2024/03/10 13:19:20;;;;;;;5.57;0.80;;;;;;;12.36;53.98;99744.78;15798212;28;20136;-50
2024/03/10 13:26:54;;;;;;;2.22;1.23;;;;;;;12.42;54.12;99741.13;15794221;28;20455;-48
2024/03/10 13:34:29;;;;;;;0.50;0.50;;;;;;;12.49;53.47;99726.41;15797554;28;20052;-49
2024/03/10 13:42:04;;;;;;;1.35;0.98;;;;;;;12.75;53.32;99713.31;15784366;28;20040;-51
2024/03/10 13:49:43;;;;;;;0.03;0.03;;;;;;;13.16;52.77;99714.63;15797118;28;20612;-48
2024/03/10 13:57:20;;;;;;;4.22;1.45;;;;;;;12.86;53.09;99712.34;15779433;28;20369;-49
2024/03/10 14:04:58;;;;;;;1.13;1.02;;;;;;;12.91;53.71;99719.69;15795386;28;20048;-48
2024/03/10 14:12:32;;;;;;;0.80;0.80;;;;;;;12.74;53.35;99717.88;15794148;28;20052;-49
2024/03/10 14:20:13;;;;;;;0.32;0.32;;;;;;;12.63;53.42;99726.88;15792095;28;20044;-51
2024/03/10 14:27:49;;;;;;;0.65;0.55;;;;;;;12.56;54.04;99731.63;15801511;28;20044;-49
2024/03/10 14:35:25;;;;;;;0.47;0.35;;;;;;;12.25;55.12;99736.53;15808901;28;20408;-50
2024/03/10 14:42:59;;;;;;;2.20;2.00;;;;;;;12.40;54.74;99740.53;15807876;28;20044;-53
2024/03/10 14:50:37;;;;;;;0.52;0.22;;;;;;;12.23;54.88;99727.91;15807061;28;20113;-48
2024/03/10 14:58:11;;;;;;;0.95;0.88;;;;;;;12.12;55.20;99707.28;15807068;28;20444;-51
2024/03/10 15:05:49;;;;;;;1.35;0.65;;;;;;;12.24;55.78;99693.75;15806921;28;20043;-51
2024/03/10 15:13:25;;;;;;;0.75;0.75;;;;;;;12.06;55.83;99670.63;15806692;28;20040;-56
2024/03/10 15:21:00;;;;;;;1.75;0.85;;;;;;;12.23;55.64;99668.72;15787291;28;20040;-49
2024/03/10 15:28:37;;;;;;;2.28;1.25;;;;;;;12.19;55.50;99689.13;15803204;28;20559;-50
2024/03/10 15:36:12;;;;;;;0.82;0.60;;;;;;;12.28;55.96;99688.69;15803655;28;20171;-51
2024/03/10 15:43:50;;;;;;;0.40;0.40;;;;;;;12.21;55.97;99700.44;15806065;28;20048;-51
2024/03/10 15:51:25;;;;;;;1.38;1.27;;;;;;;12.11;56.54;99704.84;15800201;28;20116;-51
2024/03/10 15:58:59;;;;;;;0.90;0.77;;;;;;;11.82;57.17;99696.88;15799842;28;20040;-48
2024/03/10 16:06:37;;;;;;;0.22;0.22;;;;;;;11.87;57.21;99696.13;15799177;28;20047;-52
2024/03/10 16:14:16;;;;;;;1.30;1.20;;;;;;;11.89;57.41;99700.22;15782109;28;20134;-55
2024/03/10 16:21:54;;;;;;;2.55;1.05;;;;;;;11.71;57.87;99711.19;15813111;28;20126;-50
2024/03/10 16:29:29;;;;;;;0.95;0.63;;;;;;;11.85;57.37;99717.91;15798024;28;20485;-51
2024/03/10 16:37:05;;;;;;;0.55;0.55;;;;;;;11.69;58.05;99705.22;15789879;28;20082;-50
2024/03/10 16:44:42;;;;;;;0.43;0.43;;;;;;;11.41;58.26;99704.19;15843530;28;20044;-51
2024/03/10 16:52:19;;;;;;;0.95;0.55;;;;;;;11.31;58.42;99697.81;15863149;28;20050;-49
2024/03/10 16:59:53;;;;;;;0.25;0.25;;;;;;;11.14;58.87;99692.38;15861645;28;20040;-53
2024/03/10 17:07:28;;;;;;;0.20;0.20;;;;;;;11.17;58.46;99690.03;15862038;28;20046;-52
2024/03/10 17:15:05;;;;;;;0.75;0.65;;;;;;;11.05;58.73;99680.41;15862733;28;20040;-50
2024/03/10 17:22:41;;;;;;;0.80;0.80;;;;;;;11.03;58.14;99669.91;15845587;28;20044;-54
2024/03/10 17:30:17;;;;;;;4.60;1.98;;;;;;;10.77;58.45;99670.44;15860551;28;20118;-53
2024/03/10 17:37:52;;;;;;;5.60;0.98;;;;;;;10.95;57.33;99664.91;15859143;28;20061;-52
2024/03/10 17:45:31;;;;;;;0.85;0.85;;;;;;;10.73;57.88;99672.81;15854819;28;20458;-53
2024/03/10 17:53:06;;;;;;;0.35;0.35;;;;;;;10.58;57.97;99669.78;15849559;28;20054;-50
2024/03/10 18:00:41;;;;;;;0.65;0.65;;;;;;;10.39;58.13;99664.56;15859796;28;20419;-50
2024/03/10 18:08:16;;;;;;;1.80;1.15;;;;;;;10.27;58.68;99662.97;15864739;28;20544;-54
2024/03/10 18:15:51;;;;;;;3.92;1.45;;;;;;;10.19;58.66;99675.63;15845572;28;20160;-52
2024/03/10 18:23:29;;;;;;;0.98;0.90;;;;;;;10.07;59.01;99664.13;15868543;28;20071;-52
2024/03/10 18:31:03;;;;;;;1.42;1.33;;;;;;;9.98;59.70;99662.84;15869433;28;20048;-51
2024/03/10 18:38:38;;;;;;;1.27;1.17;;;;;;;9.65;60.02;99644.59;15850313;28;20044;-56
2024/03/10 18:46:14;;;;;;;2.25;0.95;;;;;;;9.61;60.83;99649.63;15866954;28;20047;-51
2024/03/10 18:53:48;;;;;;;;;;;;;;;9.64;60.74;99657.19;15868088;28;20130;-51
2024/03/10 19:01:22;;;;;;;2.60;1.70;;;;;;;9.54;61.07;99637.38;15847637;28;19924;-50
2024/03/10 19:08:58;;;;;;;0.65;0.65;;;;;;;9.60;61.21;99628.41;15864999;28;20074;-51
2024/03/10 19:16:33;;;;;;;0.85;0.82;;;;;;;9.40;62.12;99626.03;15846050;28;20483;-52
2024/03/10 19:24:08;;;;;;;1.02;1.02;;;;;;;9.69;61.40;99627.84;15840938;28;20259;-50
2024/03/10 19:31:43;;;;;;;7.13;2.17;;;;;;;9.59;61.86;99619.56;15849075;28;20040;-49
2024/03/10 19:39:18;;;;;;;4.07;1.20;;;;;;;9.42;62.43;99614.06;15867482;28;20044;-51
2024/03/10 19:46:52;;;;;;;1.02;0.68;;;;;;;9.37;62.98;99610.44;15867336;28;20504;-49
2024/03/10 19:54:27;;;;;;;0.52;0.52;;;;;;;9.45;62.72;99610.91;15865206;28;20039;-49
2024/03/10 20:02:01;;;;;;;1.85;1.73;;;;;;;9.29;63.56;99605.44;15865052;28;20039;-47
2024/03/10 20:09:36;;;;;;;5.38;2.20;;;;;;;9.23;63.95;99604.47;15863900;28;20055;-52
2024/03/10 20:17:10;;;;;;;0.30;0.30;;;;;;;9.23;64.19;99598.28;15842064;28;20043;-50
2024/03/10 20:24:47;;;;;;;0.90;0.38;;;;;;;9.28;64.05;99598.41;15860281;28;20062;-53
2024/03/10 20:32:21;;;;;;;2.88;1.00;;;;;;;9.27;64.43;99600.28;15860476;28;20050;-51
2024/03/10 20:39:56;;;;;;;3.05;1.80;;;;;;;9.14;65.15;99595.97;15859330;28;20047;-53
2024/03/10 20:47:31;;;;;;;0.40;0.40;;;;;;;9.09;65.68;99581.63;15841960;28;20451;-53
2024/03/10 20:55:07;;;;;;;0.25;0.25;;;;;;;9.14;66.02;99581.78;15832325;28;20039;-53
2024/03/10 21:02:42;;;;;;;1.08;0.98;;;;;;;9.33;65.51;99582.50;15858755;28;20118;-53
2024/03/10 21:10:19;;;;;;;0.75;0.38;;;;;;;9.20;66.21;99580.84;15858796;28;20044;-52
2024/03/10 21:17:54;;;;;;;0.70;0.52;;;;;;;9.36;65.58;99585.50;15840517;28;20043;-55
2024/03/10 21:25:29;;;;;;;1.60;0.52;;;;;;;9.10;66.99;99573.38;15857274;28;20546;-52
2024/03/10 21:33:04;;;;;;;1.52;1.42;;;;;;;9.07;67.50;99581.84;15840226;28;20061;-53
2024/03/10 21:40:39;;;;;;;1.55;1.15;;;;;;;9.20;67.12;99578.16;15849905;28;20057;-50
2024/03/10 21:48:13;;;;;;;0.45;0.32;;;;;;;9.21;67.62;99569.09;15790441;28;20537;-50
2024/03/10 21:55:48;;;;;;;0.68;0.68;;;;;;;9.34;67.14;99560.03;15788227;28;20048;-51
2024/03/10 22:03:22;;;;;;;0.10;0.10;;;;;;;9.30;67.75;99557.00;15787082;28;20420;-48
2024/03/10 22:10:57;;;;;;;1.48;0.75;;;;;;;9.19;68.04;99539.88;15803707;28;20123;-50
2024/03/10 22:18:31;;;;;;;1.35;1.00;;;;;;;9.59;66.97;99549.09;15785834;28;20511;-50
2024/03/10 22:26:06;;;;;;;1.08;1.00;;;;;;;9.30;68.40;99537.44;15802523;28;20051;-49
2024/03/10 22:33:40;;;;;;;0.93;0.82;;;;;;;9.35;68.21;99533.00;15802684;28;20450;-49
2024/03/10 22:41:15;;;;;;;;;;;;;;;9.37;68.31;99535.44;15802296;28;20422;-49
2024/03/10 22:48:48;;;;;;;0.77;0.70;;;;;;;9.50;67.87;99535.22;15800258;28;20461;-48
2024/03/10 22:56:24;;;;;;;0.85;0.85;;;;;;;9.56;67.78;99537.00;15796867;28;20048;-48
2024/03/10 23:03:58;;;;;;;0.43;0.43;;;;;;;9.92;66.55;99540.44;15797229;28;20531;-49
2024/03/10 23:11:33;;;;;;;;;;;;;;;9.49;68.41;99543.50;15795147;28;20048;-52
2024/03/10 23:19:09;;;;;;;3.83;1.83;;;;;;;9.59;68.02;99528.47;15787433;28;19920;-52
2024/03/10 23:26:45;;;;;;;0.45;0.30;;;;;;;9.49;68.61;99544.31;15798137;28;20428;-49
2024/03/10 23:34:19;;;;;;;1.38;1.17;;;;;;;9.65;68.54;99537.44;15795486;28;20048;-49
2024/03/10 23:41:57;;;;;;;0.68;0.60;;;;;;;9.67;68.43;99538.84;15793211;28;20044;-49
2024/03/10 23:49:33;;;;;;;1.15;1.13;;;;;;;9.52;69.08;99537.69;15778086;28;20044;-49
2024/03/10 23:57:08;;;;;;;0.03;0.03;;;;;;;9.54;69.04;99531.03;15788878;28;20044;-47
